sensor_id;sensor_type;location;lat;lon;timestamp;P1;durP1;ratioP1;P2;durP2;ratioP2
1691;SDS011;843;52.054;8.552;2023-04-16T00:02:13;60.70;;;39.00;;
1691;SDS011;843;52.054;8.552;2023-04-16T00:04:40;52.63;;;38.20;;
1691;SDS011;843;52.054;8.552;2023-04-16T00:07:07;55.30;;;38.83;;
1691;SDS011;843;52.054;8.552;2023-04-16T00:09:33;54.90;;;38.00;;
1691;SDS011;843;52.054;8.552;2023-04-16T00:12:00;58.20;;;39.30;;
1691;SDS011;843;52.054;8.552;2023-04-16T00:14:28;56.00;;;38.17;;
1691;SDS011;843;52.054;8.552;2023-04-16T00:16:54;54.37;;;38.93;;
1691;SDS011;843;52.054;8.552;2023-04-16T00:19:21;51.40;;;37.20;;
1691;SDS011;843;52.054;8.552;2023-04-16T00:21:47;50.00;;;37.60;;
1691;SDS011;843;52.054;8.552;2023-04-16T00:24:13;55.07;;;37.40;;
1691;SDS011;843;52.054;8.552;2023-04-16T00:26:40;54.60;;;37.83;;
1691;SDS011;843;52.054;8.552;2023-04-16T00:29:08;48.23;;;36.83;;
1691;SDS011;843;52.054;8.552;2023-04-16T00:31:36;49.50;;;36.23;;
1691;SDS011;843;52.054;8.552;2023-04-16T00:34:02;51.50;;;39.33;;
1691;SDS011;843;52.054;8.552;2023-04-16T00:36:28;51.33;;;37.70;;
1691;SDS011;843;52.054;8.552;2023-04-16T00:38:55;60.23;;;39.57;;
1691;SDS011;843;52.054;8.552;2023-04-16T00:41:22;51.13;;;36.77;;
1691;SDS011;843;52.054;8.552;2023-04-16T00:43:48;50.20;;;39.67;;
1691;SDS011;843;52.054;8.552;2023-04-16T00:46:15;54.00;;;39.27;;
1691;SDS011;843;52.054;8.552;2023-04-16T00:48:43;53.03;;;38.17;;
1691;SDS011;843;52.054;8.552;2023-04-16T00:51:10;55.90;;;37.90;;
1691;SDS011;843;52.054;8.552;2023-04-16T00:53:36;53.80;;;39.10;;
1691;SDS011;843;52.054;8.552;2023-04-16T00:56:03;53.63;;;39.07;;
1691;SDS011;843;52.054;8.552;2023-04-16T00:58:30;54.03;;;39.10;;
1691;SDS011;843;52.054;8.552;2023-04-16T01:00:57;52.27;;;38.53;;
1691;SDS011;843;52.054;8.552;2023-04-16T01:03:24;58.33;;;39.83;;
1691;SDS011;843;52.054;8.552;2023-04-16T01:05:57;54.80;;;39.00;;
1691;SDS011;843;52.054;8.552;2023-04-16T01:08:23;53.07;;;41.40;;
1691;SDS011;843;52.054;8.552;2023-04-16T01:10:50;55.10;;;39.17;;
1691;SDS011;843;52.054;8.552;2023-04-16T01:13:16;60.37;;;40.37;;
1691;SDS011;843;52.054;8.552;2023-04-16T01:15:43;53.67;;;40.37;;
1691;SDS011;843;52.054;8.552;2023-04-16T01:18:13;53.57;;;40.17;;
1691;SDS011;843;52.054;8.552;2023-04-16T01:20:41;56.47;;;40.70;;
1691;SDS011;843;52.054;8.552;2023-04-16T01:23:07;62.73;;;42.03;;
1691;SDS011;843;52.054;8.552;2023-04-16T01:25:34;56.97;;;40.00;;
1691;SDS011;843;52.054;8.552;2023-04-16T01:28:00;54.60;;;40.23;;
1691;SDS011;843;52.054;8.552;2023-04-16T01:30:27;54.70;;;39.40;;
1691;SDS011;843;52.054;8.552;2023-04-16T01:32:53;51.20;;;40.47;;
1691;SDS011;843;52.054;8.552;2023-04-16T01:35:20;61.80;;;42.57;;
1691;SDS011;843;52.054;8.552;2023-04-16T01:37:47;57.07;;;41.10;;
1691;SDS011;843;52.054;8.552;2023-04-16T01:40:14;55.57;;;40.30;;
1691;SDS011;843;52.054;8.552;2023-04-16T01:42:41;55.40;;;42.20;;
1691;SDS011;843;52.054;8.552;2023-04-16T01:45:07;52.63;;;40.60;;
1691;SDS011;843;52.054;8.552;2023-04-16T01:47:34;51.57;;;40.70;;
1691;SDS011;843;52.054;8.552;2023-04-16T01:50:01;52.00;;;38.60;;
1691;SDS011;843;52.054;8.552;2023-04-16T01:52:28;58.10;;;39.63;;
1691;SDS011;843;52.054;8.552;2023-04-16T01:54:56;51.53;;;35.77;;
1691;SDS011;843;52.054;8.552;2023-04-16T01:57:22;47.87;;;37.23;;
1691;SDS011;843;52.054;8.552;2023-04-16T01:59:49;52.80;;;39.23;;
1691;SDS011;843;52.054;8.552;2023-04-16T02:02:15;50.00;;;37.40;;
1691;SDS011;843;52.054;8.552;2023-04-16T02:04:42;51.80;;;38.77;;
1691;SDS011;843;52.054;8.552;2023-04-16T02:07:09;52.13;;;38.70;;
1691;SDS011;843;52.054;8.552;2023-04-16T02:09:36;52.13;;;35.83;;
1691;SDS011;843;52.054;8.552;2023-04-16T02:12:04;47.63;;;37.93;;
1691;SDS011;843;52.054;8.552;2023-04-16T02:14:37;53.40;;;37.83;;
1691;SDS011;843;52.054;8.552;2023-04-16T02:17:03;54.40;;;39.00;;
1691;SDS011;843;52.054;8.552;2023-04-16T02:19:30;50.53;;;37.20;;
1691;SDS011;843;52.054;8.552;2023-04-16T02:21:56;49.07;;;36.60;;
1691;SDS011;843;52.054;8.552;2023-04-16T02:24:22;47.30;;;37.30;;
1691;SDS011;843;52.054;8.552;2023-04-16T02:26:49;48.77;;;36.87;;
1691;SDS011;843;52.054;8.552;2023-04-16T02:29:17;46.20;;;36.37;;
1691;SDS011;843;52.054;8.552;2023-04-16T02:31:43;48.63;;;35.93;;
1691;SDS011;843;52.054;8.552;2023-04-16T02:34:10;46.50;;;36.67;;
1691;SDS011;843;52.054;8.552;2023-04-16T02:36:37;48.27;;;37.60;;
1691;SDS011;843;52.054;8.552;2023-04-16T02:39:03;48.50;;;36.90;;
1691;SDS011;843;52.054;8.552;2023-04-16T02:41:30;56.27;;;35.83;;
1691;SDS011;843;52.054;8.552;2023-04-16T02:43:56;46.73;;;37.80;;
1691;SDS011;843;52.054;8.552;2023-04-16T02:46:24;44.40;;;34.93;;
1691;SDS011;843;52.054;8.552;2023-04-16T02:48:50;46.20;;;34.53;;
1691;SDS011;843;52.054;8.552;2023-04-16T02:51:17;47.60;;;36.70;;
1691;SDS011;843;52.054;8.552;2023-04-16T02:53:43;42.83;;;35.07;;
1691;SDS011;843;52.054;8.552;2023-04-16T02:56:10;48.00;;;36.30;;
1691;SDS011;843;52.054;8.552;2023-04-16T02:58:37;48.20;;;35.70;;
1691;SDS011;843;52.054;8.552;2023-04-16T03:01:03;48.00;;;35.83;;
1691;SDS011;843;52.054;8.552;2023-04-16T03:03:31;49.37;;;37.00;;
1691;SDS011;843;52.054;8.552;2023-04-16T03:05:57;44.33;;;35.23;;
1691;SDS011;843;52.054;8.552;2023-04-16T03:08:24;47.97;;;36.33;;
1691;SDS011;843;52.054;8.552;2023-04-16T03:10:51;49.70;;;37.67;;
1691;SDS011;843;52.054;8.552;2023-04-16T03:13:18;46.30;;;37.40;;
1691;SDS011;843;52.054;8.552;2023-04-16T03:15:46;44.60;;;37.10;;
1691;SDS011;843;52.054;8.552;2023-04-16T03:18:13;45.00;;;36.43;;
1691;SDS011;843;52.054;8.552;2023-04-16T03:20:41;47.10;;;36.47;;
1691;SDS011;843;52.054;8.552;2023-04-16T03:23:07;45.83;;;37.07;;
1691;SDS011;843;52.054;8.552;2023-04-16T03:25:33;48.20;;;40.07;;
1691;SDS011;843;52.054;8.552;2023-04-16T03:28:00;49.40;;;36.40;;
1691;SDS011;843;52.054;8.552;2023-04-16T03:30:27;44.47;;;34.30;;
1691;SDS011;843;52.054;8.552;2023-04-16T03:32:54;50.60;;;35.10;;
1691;SDS011;843;52.054;8.552;2023-04-16T03:35:20;49.87;;;37.70;;
1691;SDS011;843;52.054;8.552;2023-04-16T03:37:48;43.83;;;37.03;;
1691;SDS011;843;52.054;8.552;2023-04-16T03:40:15;49.53;;;37.93;;
1691;SDS011;843;52.054;8.552;2023-04-16T03:42:42;46.03;;;36.77;;
1691;SDS011;843;52.054;8.552;2023-04-16T03:45:08;63.47;;;41.00;;
1691;SDS011;843;52.054;8.552;2023-04-16T03:47:35;48.27;;;39.03;;
1691;SDS011;843;52.054;8.552;2023-04-16T03:50:01;52.47;;;40.70;;
1691;SDS011;843;52.054;8.552;2023-04-16T03:52:28;52.90;;;39.37;;
1691;SDS011;843;52.054;8.552;2023-04-16T03:54:55;50.77;;;39.07;;
1691;SDS011;843;52.054;8.552;2023-04-16T03:57:22;53.63;;;40.40;;
1691;SDS011;843;52.054;8.552;2023-04-16T03:59:48;52.43;;;38.57;;
1691;SDS011;843;52.054;8.552;2023-04-16T04:02:15;57.43;;;41.10;;
1691;SDS011;843;52.054;8.552;2023-04-16T04:04:41;50.13;;;37.20;;
1691;SDS011;843;52.054;8.552;2023-04-16T04:07:07;50.63;;;37.23;;
1691;SDS011;843;52.054;8.552;2023-04-16T04:09:34;48.07;;;36.70;;
1691;SDS011;843;52.054;8.552;2023-04-16T04:12:02;47.53;;;36.27;;
1691;SDS011;843;52.054;8.552;2023-04-16T04:14:28;48.87;;;37.47;;
1691;SDS011;843;52.054;8.552;2023-04-16T04:16:55;48.70;;;37.53;;
1691;SDS011;843;52.054;8.552;2023-04-16T04:19:21;50.00;;;38.40;;
1691;SDS011;843;52.054;8.552;2023-04-16T04:21:48;49.50;;;37.83;;
1691;SDS011;843;52.054;8.552;2023-04-16T04:24:14;52.67;;;37.33;;
1691;SDS011;843;52.054;8.552;2023-04-16T04:26:40;49.33;;;38.70;;
1691;SDS011;843;52.054;8.552;2023-04-16T04:29:08;52.40;;;38.10;;
1691;SDS011;843;52.054;8.552;2023-04-16T04:31:34;49.77;;;37.97;;
1691;SDS011;843;52.054;8.552;2023-04-16T04:34:01;54.37;;;38.30;;
1691;SDS011;843;52.054;8.552;2023-04-16T04:36:27;55.93;;;39.40;;
1691;SDS011;843;52.054;8.552;2023-04-16T04:38:54;53.30;;;39.67;;
1691;SDS011;843;52.054;8.552;2023-04-16T04:41:20;51.27;;;38.17;;
1691;SDS011;843;52.054;8.552;2023-04-16T04:43:46;57.50;;;40.37;;
1691;SDS011;843;52.054;8.552;2023-04-16T04:46:14;50.50;;;38.77;;
1691;SDS011;843;52.054;8.552;2023-04-16T04:48:41;54.77;;;38.10;;
1691;SDS011;843;52.054;8.552;2023-04-16T04:51:07;50.90;;;39.60;;
1691;SDS011;843;52.054;8.552;2023-04-16T04:53:33;46.87;;;35.87;;
1691;SDS011;843;52.054;8.552;2023-04-16T04:56:00;48.30;;;38.80;;
1691;SDS011;843;52.054;8.552;2023-04-16T04:58:26;48.57;;;38.67;;
1691;SDS011;843;52.054;8.552;2023-04-16T05:00:53;45.33;;;37.60;;
1691;SDS011;843;52.054;8.552;2023-04-16T05:03:21;58.13;;;40.23;;
1691;SDS011;843;52.054;8.552;2023-04-16T05:05:47;55.33;;;39.53;;
1691;SDS011;843;52.054;8.552;2023-04-16T05:08:13;51.77;;;38.37;;
1691;SDS011;843;52.054;8.552;2023-04-16T05:10:40;52.57;;;37.47;;
1691;SDS011;843;52.054;8.552;2023-04-16T05:13:06;59.80;;;39.97;;
1691;SDS011;843;52.054;8.552;2023-04-16T05:15:32;61.23;;;39.63;;
1691;SDS011;843;52.054;8.552;2023-04-16T05:17:59;54.63;;;39.13;;
1691;SDS011;843;52.054;8.552;2023-04-16T05:20:27;54.00;;;40.50;;
1691;SDS011;843;52.054;8.552;2023-04-16T05:22:53;56.17;;;39.50;;
1691;SDS011;843;52.054;8.552;2023-04-16T05:25:20;55.90;;;40.13;;
1691;SDS011;843;52.054;8.552;2023-04-16T05:27:46;52.90;;;40.87;;
1691;SDS011;843;52.054;8.552;2023-04-16T05:30:13;56.33;;;40.20;;
1691;SDS011;843;52.054;8.552;2023-04-16T05:32:39;56.17;;;39.37;;
1691;SDS011;843;52.054;8.552;2023-04-16T05:35:06;57.57;;;40.50;;
1691;SDS011;843;52.054;8.552;2023-04-16T05:37:35;57.23;;;38.43;;
1691;SDS011;843;52.054;8.552;2023-04-16T05:40:01;54.13;;;39.93;;
1691;SDS011;843;52.054;8.552;2023-04-16T05:42:28;56.60;;;40.87;;
1691;SDS011;843;52.054;8.552;2023-04-16T05:44:54;51.93;;;37.80;;
1691;SDS011;843;52.054;8.552;2023-04-16T05:47:21;54.27;;;39.40;;
1691;SDS011;843;52.054;8.552;2023-04-16T05:49:47;55.00;;;39.83;;
1691;SDS011;843;52.054;8.552;2023-04-16T05:52:13;54.00;;;39.97;;
1691;SDS011;843;52.054;8.552;2023-04-16T05:54:41;53.97;;;41.50;;
1691;SDS011;843;52.054;8.552;2023-04-16T05:57:07;51.07;;;39.80;;
1691;SDS011;843;52.054;8.552;2023-04-16T05:59:34;54.10;;;39.63;;
1691;SDS011;843;52.054;8.552;2023-04-16T06:02:00;51.67;;;39.43;;
1691;SDS011;843;52.054;8.552;2023-04-16T06:04:27;60.90;;;40.23;;
1691;SDS011;843;52.054;8.552;2023-04-16T06:06:55;53.33;;;38.93;;
1691;SDS011;843;52.054;8.552;2023-04-16T06:09:21;57.93;;;40.00;;
1691;SDS011;843;52.054;8.552;2023-04-16T06:11:50;56.47;;;39.30;;
1691;SDS011;843;52.054;8.552;2023-04-16T06:14:16;56.57;;;39.70;;
1691;SDS011;843;52.054;8.552;2023-04-16T06:16:42;51.53;;;36.90;;
1691;SDS011;843;52.054;8.552;2023-04-16T06:19:09;52.70;;;37.40;;
1691;SDS011;843;52.054;8.552;2023-04-16T06:21:35;46.40;;;36.30;;
1691;SDS011;843;52.054;8.552;2023-04-16T06:24:03;50.37;;;39.20;;
1691;SDS011;843;52.054;8.552;2023-04-16T06:26:29;47.50;;;37.67;;
1691;SDS011;843;52.054;8.552;2023-04-16T06:28:57;52.17;;;35.73;;
1691;SDS011;843;52.054;8.552;2023-04-16T06:31:23;48.73;;;37.63;;
1691;SDS011;843;52.054;8.552;2023-04-16T06:33:50;51.97;;;38.57;;
1691;SDS011;843;52.054;8.552;2023-04-16T06:36:16;49.37;;;35.40;;
1691;SDS011;843;52.054;8.552;2023-04-16T06:38:43;45.00;;;35.10;;
1691;SDS011;843;52.054;8.552;2023-04-16T06:41:09;52.47;;;38.53;;
1691;SDS011;843;52.054;8.552;2023-04-16T06:43:36;47.97;;;37.03;;
1691;SDS011;843;52.054;8.552;2023-04-16T06:46:04;45.50;;;35.80;;
1691;SDS011;843;52.054;8.552;2023-04-16T06:48:30;44.97;;;34.40;;
1691;SDS011;843;52.054;8.552;2023-04-16T06:50:56;47.87;;;36.97;;
1691;SDS011;843;52.054;8.552;2023-04-16T06:53:23;46.70;;;33.37;;
1691;SDS011;843;52.054;8.552;2023-04-16T06:55:49;47.87;;;36.07;;
1691;SDS011;843;52.054;8.552;2023-04-16T06:58:16;41.73;;;32.57;;
1691;SDS011;843;52.054;8.552;2023-04-16T07:00:42;45.43;;;34.67;;
1691;SDS011;843;52.054;8.552;2023-04-16T07:03:10;41.93;;;32.50;;
1691;SDS011;843;52.054;8.552;2023-04-16T07:05:36;45.63;;;33.97;;
1691;SDS011;843;52.054;8.552;2023-04-16T07:08:04;44.70;;;33.47;;
1691;SDS011;843;52.054;8.552;2023-04-16T07:10:30;42.23;;;33.00;;
1691;SDS011;843;52.054;8.552;2023-04-16T07:12:57;41.43;;;31.57;;
1691;SDS011;843;52.054;8.552;2023-04-16T07:15:25;42.27;;;31.40;;
1691;SDS011;843;52.054;8.552;2023-04-16T07:17:54;42.80;;;32.00;;
1691;SDS011;843;52.054;8.552;2023-04-16T07:20:22;42.33;;;31.67;;
1691;SDS011;843;52.054;8.552;2023-04-16T07:22:48;42.43;;;33.23;;
1691;SDS011;843;52.054;8.552;2023-04-16T07:25:15;40.93;;;30.97;;
1691;SDS011;843;52.054;8.552;2023-04-16T07:27:41;47.20;;;30.07;;
1691;SDS011;843;52.054;8.552;2023-04-16T07:30:08;39.50;;;31.47;;
1691;SDS011;843;52.054;8.552;2023-04-16T07:32:34;39.13;;;30.40;;
1691;SDS011;843;52.054;8.552;2023-04-16T07:35:01;43.77;;;31.30;;
1691;SDS011;843;52.054;8.552;2023-04-16T07:37:30;40.33;;;30.40;;
1691;SDS011;843;52.054;8.552;2023-04-16T07:39:56;41.67;;;31.77;;
1691;SDS011;843;52.054;8.552;2023-04-16T07:42:24;43.07;;;30.90;;
1691;SDS011;843;52.054;8.552;2023-04-16T07:44:51;50.17;;;32.03;;
1691;SDS011;843;52.054;8.552;2023-04-16T07:47:17;40.03;;;32.00;;
1691;SDS011;843;52.054;8.552;2023-04-16T07:49:43;39.53;;;30.03;;
1691;SDS011;843;52.054;8.552;2023-04-16T07:52:10;37.60;;;28.73;;
1691;SDS011;843;52.054;8.552;2023-04-16T07:54:38;42.20;;;28.90;;
1691;SDS011;843;52.054;8.552;2023-04-16T07:57:04;36.20;;;27.73;;
1691;SDS011;843;52.054;8.552;2023-04-16T07:59:31;38.10;;;29.13;;
1691;SDS011;843;52.054;8.552;2023-04-16T08:01:57;34.80;;;27.07;;
1691;SDS011;843;52.054;8.552;2023-04-16T08:04:24;37.00;;;28.97;;
1691;SDS011;843;52.054;8.552;2023-04-16T08:06:50;37.63;;;29.27;;
1691;SDS011;843;52.054;8.552;2023-04-16T08:09:17;38.47;;;29.13;;
1691;SDS011;843;52.054;8.552;2023-04-16T08:11:45;38.03;;;31.00;;
1691;SDS011;843;52.054;8.552;2023-04-16T08:14:13;42.87;;;30.60;;
1691;SDS011;843;52.054;8.552;2023-04-16T08:16:39;39.87;;;30.83;;
1691;SDS011;843;52.054;8.552;2023-04-16T08:19:06;36.07;;;29.70;;
1691;SDS011;843;52.054;8.552;2023-04-16T08:21:32;37.70;;;30.50;;
1691;SDS011;843;52.054;8.552;2023-04-16T08:23:59;35.87;;;27.50;;
1691;SDS011;843;52.054;8.552;2023-04-16T08:26:25;36.60;;;28.37;;
1691;SDS011;843;52.054;8.552;2023-04-16T08:28:53;38.00;;;28.40;;
1691;SDS011;843;52.054;8.552;2023-04-16T08:31:19;37.97;;;28.57;;
1691;SDS011;843;52.054;8.552;2023-04-16T08:33:46;38.53;;;28.63;;
1691;SDS011;843;52.054;8.552;2023-04-16T08:36:14;35.13;;;27.23;;
1691;SDS011;843;52.054;8.552;2023-04-16T08:38:41;34.60;;;26.67;;
1691;SDS011;843;52.054;8.552;2023-04-16T08:41:08;30.20;;;26.57;;
1691;SDS011;843;52.054;8.552;2023-04-16T08:43:37;31.07;;;26.73;;
1691;SDS011;843;52.054;8.552;2023-04-16T08:46:05;34.87;;;25.60;;
1691;SDS011;843;52.054;8.552;2023-04-16T08:48:32;31.03;;;26.57;;
1691;SDS011;843;52.054;8.552;2023-04-16T08:50:59;36.87;;;28.20;;
1691;SDS011;843;52.054;8.552;2023-04-16T08:53:28;34.47;;;26.10;;
1691;SDS011;843;52.054;8.552;2023-04-16T08:55:57;29.70;;;25.20;;
1691;SDS011;843;52.054;8.552;2023-04-16T08:58:25;31.30;;;26.20;;
1691;SDS011;843;52.054;8.552;2023-04-16T09:00:54;34.73;;;28.53;;
1691;SDS011;843;52.054;8.552;2023-04-16T09:03:23;37.10;;;27.73;;
1691;SDS011;843;52.054;8.552;2023-04-16T09:05:49;33.00;;;27.07;;
1691;SDS011;843;52.054;8.552;2023-04-16T09:08:16;32.20;;;27.30;;
1691;SDS011;843;52.054;8.552;2023-04-16T09:10:43;33.87;;;26.87;;
1691;SDS011;843;52.054;8.552;2023-04-16T09:13:09;31.10;;;26.63;;
1691;SDS011;843;52.054;8.552;2023-04-16T09:15:37;30.57;;;25.20;;
1691;SDS011;843;52.054;8.552;2023-04-16T09:18:04;32.47;;;25.33;;
1691;SDS011;843;52.054;8.552;2023-04-16T09:20:32;31.67;;;25.57;;
1691;SDS011;843;52.054;8.552;2023-04-16T09:22:58;31.50;;;25.20;;
1691;SDS011;843;52.054;8.552;2023-04-16T09:25:25;31.20;;;26.47;;
1691;SDS011;843;52.054;8.552;2023-04-16T09:27:51;33.57;;;24.97;;
1691;SDS011;843;52.054;8.552;2023-04-16T09:30:21;34.20;;;28.27;;
1691;SDS011;843;52.054;8.552;2023-04-16T09:32:49;34.53;;;27.30;;
1691;SDS011;843;52.054;8.552;2023-04-16T09:35:16;32.10;;;26.47;;
1691;SDS011;843;52.054;8.552;2023-04-16T09:37:46;35.23;;;27.97;;
1691;SDS011;843;52.054;8.552;2023-04-16T09:40:23;29.80;;;25.27;;
1691;SDS011;843;52.054;8.552;2023-04-16T09:42:50;34.97;;;26.97;;
1691;SDS011;843;52.054;8.552;2023-04-16T09:45:17;32.80;;;25.37;;
1691;SDS011;843;52.054;8.552;2023-04-16T09:47:44;32.90;;;26.77;;
1691;SDS011;843;52.054;8.552;2023-04-16T09:50:13;28.87;;;25.77;;
1691;SDS011;843;52.054;8.552;2023-04-16T09:52:41;30.30;;;24.50;;
1691;SDS011;843;52.054;8.552;2023-04-16T09:55:09;35.93;;;25.27;;
1691;SDS011;843;52.054;8.552;2023-04-16T09:57:36;33.70;;;25.97;;
1691;SDS011;843;52.054;8.552;2023-04-16T10:00:03;29.80;;;24.70;;
1691;SDS011;843;52.054;8.552;2023-04-16T10:02:30;35.60;;;23.90;;
1691;SDS011;843;52.054;8.552;2023-04-16T10:05:00;29.30;;;23.87;;
1691;SDS011;843;52.054;8.552;2023-04-16T10:07:27;29.10;;;24.60;;
1691;SDS011;843;52.054;8.552;2023-04-16T10:09:53;29.10;;;23.00;;
1691;SDS011;843;52.054;8.552;2023-04-16T10:12:21;29.47;;;24.03;;
1691;SDS011;843;52.054;8.552;2023-04-16T10:14:48;28.43;;;23.70;;
1691;SDS011;843;52.054;8.552;2023-04-16T10:17:14;32.23;;;22.87;;
1691;SDS011;843;52.054;8.552;2023-04-16T10:19:41;32.27;;;22.40;;
1691;SDS011;843;52.054;8.552;2023-04-16T10:22:07;31.17;;;25.57;;
1691;SDS011;843;52.054;8.552;2023-04-16T10:24:34;32.43;;;23.77;;
1691;SDS011;843;52.054;8.552;2023-04-16T10:27:00;35.33;;;23.47;;
1691;SDS011;843;52.054;8.552;2023-04-16T10:29:30;28.47;;;20.97;;
1691;SDS011;843;52.054;8.552;2023-04-16T10:31:57;27.10;;;21.80;;
1691;SDS011;843;52.054;8.552;2023-04-16T10:34:23;27.87;;;22.30;;
1691;SDS011;843;52.054;8.552;2023-04-16T10:36:51;24.73;;;20.90;;
1691;SDS011;843;52.054;8.552;2023-04-16T10:39:18;31.07;;;22.77;;
1691;SDS011;843;52.054;8.552;2023-04-16T10:41:45;31.77;;;22.53;;
1691;SDS011;843;52.054;8.552;2023-04-16T10:44:12;27.30;;;21.10;;
1691;SDS011;843;52.054;8.552;2023-04-16T10:46:40;29.20;;;22.93;;
1691;SDS011;843;52.054;8.552;2023-04-16T10:49:13;28.97;;;23.50;;
1691;SDS011;843;52.054;8.552;2023-04-16T10:51:40;27.93;;;21.40;;
1691;SDS011;843;52.054;8.552;2023-04-16T10:56:48;30.53;;;23.60;;
1691;SDS011;843;52.054;8.552;2023-04-16T10:59:16;30.93;;;23.70;;
1691;SDS011;843;52.054;8.552;2023-04-16T11:01:45;30.43;;;24.03;;
1691;SDS011;843;52.054;8.552;2023-04-16T11:04:28;33.97;;;24.17;;
1691;SDS011;843;52.054;8.552;2023-04-16T11:06:59;32.83;;;25.93;;
1691;SDS011;843;52.054;8.552;2023-04-16T11:09:42;30.27;;;23.60;;
1691;SDS011;843;52.054;8.552;2023-04-16T11:12:09;33.10;;;25.33;;
1691;SDS011;843;52.054;8.552;2023-04-16T11:14:37;34.20;;;27.00;;
1691;SDS011;843;52.054;8.552;2023-04-16T11:17:05;35.10;;;27.10;;
1691;SDS011;843;52.054;8.552;2023-04-16T11:19:31;34.03;;;26.60;;
1691;SDS011;843;52.054;8.552;2023-04-16T11:21:59;33.93;;;27.80;;
1691;SDS011;843;52.054;8.552;2023-04-16T11:24:28;35.03;;;28.20;;
1691;SDS011;843;52.054;8.552;2023-04-16T11:26:54;32.33;;;27.60;;
1691;SDS011;843;52.054;8.552;2023-04-16T11:29:21;33.03;;;26.90;;
1691;SDS011;843;52.054;8.552;2023-04-16T11:31:48;32.60;;;27.43;;
1691;SDS011;843;52.054;8.552;2023-04-16T11:34:16;36.93;;;28.83;;
1691;SDS011;843;52.054;8.552;2023-04-16T11:36:43;33.03;;;26.67;;
1691;SDS011;843;52.054;8.552;2023-04-16T11:39:10;32.70;;;25.97;;
1691;SDS011;843;52.054;8.552;2023-04-16T11:41:41;32.47;;;25.03;;
1691;SDS011;843;52.054;8.552;2023-04-16T11:44:17;30.53;;;26.13;;
1691;SDS011;843;52.054;8.552;2023-04-16T11:46:44;32.80;;;25.07;;
1691;SDS011;843;52.054;8.552;2023-04-16T11:49:10;32.67;;;25.67;;
1691;SDS011;843;52.054;8.552;2023-04-16T11:51:41;33.83;;;26.30;;
1691;SDS011;843;52.054;8.552;2023-04-16T11:54:08;31.47;;;25.50;;
1691;SDS011;843;52.054;8.552;2023-04-16T11:56:35;30.80;;;24.80;;
1691;SDS011;843;52.054;8.552;2023-04-16T11:59:08;32.43;;;25.37;;
1691;SDS011;843;52.054;8.552;2023-04-16T12:01:35;32.50;;;25.23;;
1691;SDS011;843;52.054;8.552;2023-04-16T12:04:02;28.43;;;24.10;;
1691;SDS011;843;52.054;8.552;2023-04-16T12:06:29;31.47;;;24.40;;
1691;SDS011;843;52.054;8.552;2023-04-16T12:08:57;31.10;;;25.47;;
1691;SDS011;843;52.054;8.552;2023-04-16T12:11:36;30.80;;;23.90;;
1691;SDS011;843;52.054;8.552;2023-04-16T12:14:06;25.40;;;22.67;;
1691;SDS011;843;52.054;8.552;2023-04-16T12:16:33;28.27;;;23.17;;
1691;SDS011;843;52.054;8.552;2023-04-16T12:19:00;30.10;;;24.03;;
1691;SDS011;843;52.054;8.552;2023-04-16T12:21:37;30.33;;;25.00;;
1691;SDS011;843;52.054;8.552;2023-04-16T12:24:06;28.03;;;23.60;;
1691;SDS011;843;52.054;8.552;2023-04-16T12:26:39;36.03;;;24.70;;
1691;SDS011;843;52.054;8.552;2023-04-16T12:29:15;30.40;;;23.50;;
1691;SDS011;843;52.054;8.552;2023-04-16T12:31:42;30.27;;;24.80;;
1691;SDS011;843;52.054;8.552;2023-04-16T12:34:08;30.57;;;25.00;;
1691;SDS011;843;52.054;8.552;2023-04-16T12:36:35;30.97;;;25.13;;
1691;SDS011;843;52.054;8.552;2023-04-16T12:39:01;29.93;;;25.60;;
1691;SDS011;843;52.054;8.552;2023-04-16T12:41:30;32.83;;;25.03;;
1691;SDS011;843;52.054;8.552;2023-04-16T12:44:06;32.63;;;25.80;;
1691;SDS011;843;52.054;8.552;2023-04-16T12:46:36;28.40;;;25.27;;
1691;SDS011;843;52.054;8.552;2023-04-16T12:49:02;33.17;;;27.20;;
1691;SDS011;843;52.054;8.552;2023-04-16T12:51:29;35.33;;;25.90;;
1691;SDS011;843;52.054;8.552;2023-04-16T12:53:56;28.97;;;24.33;;
1691;SDS011;843;52.054;8.552;2023-04-16T12:56:23;29.03;;;24.63;;
1691;SDS011;843;52.054;8.552;2023-04-16T12:58:51;27.80;;;23.50;;
1691;SDS011;843;52.054;8.552;2023-04-16T13:01:17;27.03;;;23.87;;
1691;SDS011;843;52.054;8.552;2023-04-16T13:03:43;29.60;;;23.50;;
1691;SDS011;843;52.054;8.552;2023-04-16T13:06:10;30.33;;;25.57;;
1691;SDS011;843;52.054;8.552;2023-04-16T13:08:37;31.83;;;23.97;;
1691;SDS011;843;52.054;8.552;2023-04-16T13:11:03;35.20;;;25.10;;
1691;SDS011;843;52.054;8.552;2023-04-16T13:13:30;29.00;;;22.00;;
1691;SDS011;843;52.054;8.552;2023-04-16T13:15:58;28.30;;;23.43;;
1691;SDS011;843;52.054;8.552;2023-04-16T13:18:24;28.80;;;24.60;;
1691;SDS011;843;52.054;8.552;2023-04-16T13:20:51;27.17;;;23.57;;
1691;SDS011;843;52.054;8.552;2023-04-16T13:23:18;28.20;;;23.30;;
1691;SDS011;843;52.054;8.552;2023-04-16T13:25:44;35.77;;;24.00;;
1691;SDS011;843;52.054;8.552;2023-04-16T13:28:11;27.70;;;24.37;;
1691;SDS011;843;52.054;8.552;2023-04-16T13:30:38;27.77;;;23.67;;
1691;SDS011;843;52.054;8.552;2023-04-16T13:33:06;29.47;;;24.87;;
1691;SDS011;843;52.054;8.552;2023-04-16T13:35:32;27.30;;;22.87;;
1691;SDS011;843;52.054;8.552;2023-04-16T13:37:59;26.90;;;22.90;;
1691;SDS011;843;52.054;8.552;2023-04-16T13:40:26;27.00;;;23.17;;
1691;SDS011;843;52.054;8.552;2023-04-16T13:42:52;29.57;;;22.77;;
1691;SDS011;843;52.054;8.552;2023-04-16T13:45:19;27.43;;;24.50;;
1691;SDS011;843;52.054;8.552;2023-04-16T13:47:45;27.43;;;22.07;;
1691;SDS011;843;52.054;8.552;2023-04-16T13:50:13;29.23;;;22.57;;
1691;SDS011;843;52.054;8.552;2023-04-16T13:52:39;26.80;;;23.10;;
1691;SDS011;843;52.054;8.552;2023-04-16T13:55:06;26.63;;;22.13;;
1691;SDS011;843;52.054;8.552;2023-04-16T13:57:33;23.80;;;21.27;;
1691;SDS011;843;52.054;8.552;2023-04-16T14:00:01;28.33;;;22.53;;
1691;SDS011;843;52.054;8.552;2023-04-16T14:02:28;26.27;;;22.70;;
1691;SDS011;843;52.054;8.552;2023-04-16T14:04:54;28.43;;;23.80;;
1691;SDS011;843;52.054;8.552;2023-04-16T14:07:22;24.90;;;22.30;;
1691;SDS011;843;52.054;8.552;2023-04-16T14:09:51;28.47;;;23.10;;
1691;SDS011;843;52.054;8.552;2023-04-16T14:12:20;27.87;;;24.37;;
1691;SDS011;843;52.054;8.552;2023-04-16T14:14:46;28.17;;;23.23;;
1691;SDS011;843;52.054;8.552;2023-04-16T14:17:13;27.80;;;23.03;;
1691;SDS011;843;52.054;8.552;2023-04-16T14:19:39;25.77;;;22.97;;
1691;SDS011;843;52.054;8.552;2023-04-16T14:22:06;25.00;;;22.30;;
1691;SDS011;843;52.054;8.552;2023-04-16T14:24:34;25.60;;;22.73;;
1691;SDS011;843;52.054;8.552;2023-04-16T14:27:00;24.93;;;22.27;;
1691;SDS011;843;52.054;8.552;2023-04-16T14:29:27;26.00;;;22.00;;
1691;SDS011;843;52.054;8.552;2023-04-16T14:31:53;32.90;;;23.33;;
1691;SDS011;843;52.054;8.552;2023-04-16T14:34:20;26.83;;;21.80;;
1691;SDS011;843;52.054;8.552;2023-04-16T14:36:46;28.27;;;22.77;;
1691;SDS011;843;52.054;8.552;2023-04-16T14:39:14;28.73;;;23.17;;
1691;SDS011;843;52.054;8.552;2023-04-16T14:41:42;29.27;;;22.23;;
1691;SDS011;843;52.054;8.552;2023-04-16T14:44:08;26.00;;;22.60;;
1691;SDS011;843;52.054;8.552;2023-04-16T14:46:35;29.37;;;23.00;;
1691;SDS011;843;52.054;8.552;2023-04-16T14:49:02;24.67;;;21.90;;
1691;SDS011;843;52.054;8.552;2023-04-16T14:51:29;25.00;;;22.50;;
1691;SDS011;843;52.054;8.552;2023-04-16T14:53:55;24.60;;;21.20;;
1691;SDS011;843;52.054;8.552;2023-04-16T14:56:22;25.03;;;21.00;;
1691;SDS011;843;52.054;8.552;2023-04-16T14:58:49;26.80;;;21.77;;
1691;SDS011;843;52.054;8.552;2023-04-16T15:01:16;25.20;;;21.23;;
1691;SDS011;843;52.054;8.552;2023-04-16T15:03:42;24.20;;;20.27;;